Allingtown, Connecticut
Current Conditions -  °F | °C
As of 7:53 PM on Friday 31 Oct 2014 (Local Time) from KHVN Reporting Station
Light Rain Light Rain  
Wind Chill: 51°   Ceiling: 2500
Heat Index: 51°   Visibility: 10mi
Dew Point: 42°   Wind: 7mph
Humidity: 71%   Direction: 30°NNE
Pressure: 29.95"   Gusts: NA
Location:  41.2716°N, 72.9666°W
Report Text: KHVN 312353Z 03006KT 10SM -RA OVC025 11/06 A2995 RMK AO2 RAB36 SLP140 P0000 60000 T01060056 10133 20106 53011
Loading
Personal Weather Stations






























Interactive Weather Map
Tropical Storm Tracking
New forecast layout! Learn more

10-Day Weather Forecast

Advertisements
Track Severe Weather on mobile